createdAt,value
2023-02-27T00:02:14.732Z,21.85
2023-02-27T00:04:42.641Z,22.95
2023-02-27T00:07:10.987Z,22.65
2023-02-27T00:09:40.435Z,22.35
2023-02-27T00:12:09.215Z,22.35
2023-02-27T00:14:37.162Z,22.48
2023-02-27T00:17:05.590Z,21.58
2023-02-27T00:19:34.857Z,22.00
2023-02-27T00:22:03.058Z,21.55
2023-02-27T00:24:31.090Z,20.42
2023-02-27T00:26:59.768Z,22.38
2023-02-27T00:29:27.700Z,22.15
2023-02-27T00:31:56.105Z,21.45
2023-02-27T00:34:24.192Z,22.88
2023-02-27T00:36:53.729Z,22.27
2023-02-27T00:39:21.775Z,22.60
2023-02-27T00:41:50.062Z,22.20
2023-02-27T00:44:18.251Z,22.25
2023-02-27T00:46:46.543Z,20.67
2023-02-27T00:49:14.624Z,22.55
2023-02-27T00:51:42.998Z,21.75
2023-02-27T00:54:12.239Z,17.63
2023-02-27T00:56:41.048Z,15.55
2023-02-27T00:59:09.041Z,18.05
2023-02-27T01:01:37.741Z,16.92
2023-02-27T01:04:05.826Z,16.77
2023-02-27T01:06:34.163Z,16.67
2023-02-27T01:09:02.086Z,15.85
2023-02-27T01:11:32.182Z,18.33
2023-02-27T01:14:00.287Z,17.38
2023-02-27T01:16:28.767Z,15.52
2023-02-27T01:18:56.905Z,14.88
2023-02-27T01:21:26.184Z,15.75
2023-02-27T01:23:54.436Z,15.20
2023-02-27T01:26:22.869Z,12.88
2023-02-27T01:28:52.191Z,13.52
2023-02-27T01:31:20.522Z,14.10
2023-02-27T01:33:49.434Z,13.02
2023-02-27T01:36:17.759Z,14.68
2023-02-27T01:38:45.810Z,11.95
2023-02-27T01:41:14.185Z,12.70
2023-02-27T01:44:01.322Z,10.80
2023-02-27T01:46:30.580Z,12.00
2023-02-27T01:49:01.553Z,11.05
2023-02-27T01:51:33.493Z,11.23
2023-02-27T01:54:01.639Z,10.38
2023-02-27T01:56:31.430Z,8.63
2023-02-27T01:59:03.888Z,10.13
2023-02-27T02:01:33.428Z,9.38
2023-02-27T02:04:12.812Z,8.98
2023-02-27T02:06:43.354Z,8.55
2023-02-27T02:09:12.177Z,8.75
2023-02-27T02:11:40.652Z,8.55
2023-02-27T02:14:10.985Z,7.97
2023-02-27T02:16:55.184Z,7.70
2023-02-27T02:19:46.474Z,7.20
2023-02-27T02:22:52.393Z,7.53
2023-02-27T02:25:40.347Z,7.35
2023-02-27T02:28:17.833Z,6.53
2023-02-27T02:31:14.763Z,5.80
2023-02-27T02:34:04.374Z,6.55
2023-02-27T02:37:00.000Z,5.97
2023-02-27T02:39:56.239Z,5.68
2023-02-27T02:42:27.577Z,5.32
2023-02-27T02:45:04.290Z,5.18
2023-02-27T02:47:36.916Z,5.40
2023-02-27T02:50:10.255Z,5.68
2023-02-27T02:52:45.705Z,4.82
2023-02-27T02:55:19.495Z,4.22
2023-02-27T02:57:50.477Z,4.13
2023-02-27T03:00:21.302Z,4.28
2023-02-27T03:02:52.344Z,3.88
2023-02-27T03:05:24.524Z,3.80
2023-02-27T03:07:57.425Z,3.40
2023-02-27T03:10:29.766Z,3.05
2023-02-27T03:13:03.154Z,3.22
2023-02-27T03:15:34.226Z,2.80
2023-02-27T03:18:06.795Z,2.53
2023-02-27T03:20:37.772Z,2.75
2023-02-27T03:23:10.610Z,2.45
2023-02-27T03:25:40.361Z,2.28
2023-02-27T03:28:11.530Z,2.50
2023-02-27T03:30:42.779Z,2.28
2023-02-27T03:33:14.950Z,1.80
2023-02-27T03:38:17.193Z,2.65
2023-02-27T03:40:53.185Z,1.92
2023-02-27T03:43:27.751Z,2.15
2023-02-27T03:46:00.773Z,1.88
2023-02-27T03:48:29.184Z,2.33
2023-02-27T03:50:57.956Z,2.55
2023-02-27T03:53:29.913Z,2.50
2023-02-27T03:58:27.520Z,2.40
2023-02-27T04:00:55.800Z,2.50
2023-02-27T04:03:23.942Z,2.25
2023-02-27T04:05:52.225Z,2.70
2023-02-27T04:08:39.269Z,2.38
2023-02-27T04:11:18.889Z,1.27
2023-02-27T04:14:01.015Z,1.88
2023-02-27T04:17:02.456Z,1.45
2023-02-27T04:19:48.203Z,2.10
2023-02-27T04:22:27.171Z,1.42
2023-02-27T04:25:01.887Z,1.17
2023-02-27T04:27:36.815Z,1.20
2023-02-27T04:30:15.243Z,1.10
2023-02-27T04:32:47.383Z,1.33
2023-02-27T04:35:19.126Z,1.50
2023-02-27T04:37:50.163Z,1.23
2023-02-27T04:40:19.786Z,1.45
2023-02-27T04:42:54.896Z,1.45
2023-02-27T04:45:25.612Z,1.10
2023-02-27T04:47:56.674Z,1.25
2023-02-27T04:50:28.026Z,1.30
2023-02-27T04:52:59.240Z,1.40
2023-02-27T04:55:29.806Z,1.40
2023-02-27T04:58:03.197Z,1.20
2023-02-27T05:00:33.707Z,1.27
2023-02-27T05:03:04.988Z,1.63
2023-02-27T05:05:35.066Z,1.17
2023-02-27T05:08:06.784Z,1.13
2023-02-27T05:10:38.138Z,2.00
2023-02-27T05:13:12.336Z,1.83
2023-02-27T05:15:44.611Z,4.38
2023-02-27T05:18:15.226Z,3.38
2023-02-27T05:20:52.714Z,3.60
2023-02-27T05:23:24.530Z,3.55
2023-02-27T05:25:56.867Z,1.90
2023-02-27T05:28:34.351Z,2.13
2023-02-27T05:31:08.462Z,2.00
2023-02-27T05:33:39.535Z,1.92
2023-02-27T05:36:12.730Z,5.90
2023-02-27T05:38:43.444Z,5.13
2023-02-27T05:41:13.508Z,2.60
2023-02-27T05:43:45.297Z,2.13
2023-02-27T05:46:25.146Z,1.50
2023-02-27T05:48:55.575Z,5.18
2023-02-27T05:51:26.440Z,3.90
2023-02-27T05:53:59.320Z,3.53
2023-02-27T05:56:28.405Z,4.95
2023-02-27T05:59:01.799Z,5.30
2023-02-27T06:01:30.096Z,2.85
2023-02-27T06:03:58.689Z,2.88
2023-02-27T06:06:27.174Z,3.40
2023-02-27T06:08:55.783Z,3.05
2023-02-27T06:11:23.971Z,4.30
2023-02-27T06:13:52.183Z,5.95
2023-02-27T06:16:21.711Z,4.63
2023-02-27T06:18:49.932Z,5.20
2023-02-27T06:21:17.864Z,4.40
2023-02-27T06:23:46.292Z,2.78
2023-02-27T06:26:14.379Z,2.38
2023-02-27T06:28:43.222Z,2.10
2023-02-27T06:31:11.320Z,2.05
2023-02-27T06:33:40.895Z,1.98
2023-02-27T06:36:08.868Z,2.05
2023-02-27T06:38:37.484Z,1.85
2023-02-27T06:41:05.620Z,2.03
2023-02-27T06:43:34.830Z,2.00
2023-02-27T06:46:03.620Z,1.80
2023-02-27T06:48:32.227Z,2.10
2023-02-27T06:51:01.634Z,2.67
2023-02-27T06:53:30.630Z,2.42
2023-02-27T06:55:58.533Z,2.78
2023-02-27T06:58:26.794Z,2.30
2023-02-27T07:00:55.036Z,2.60
2023-02-27T07:03:23.246Z,2.60
2023-02-27T07:05:51.449Z,2.47
2023-02-27T07:08:21.190Z,3.08
2023-02-27T07:10:49.266Z,2.80
2023-02-27T07:13:19.552Z,4.25
2023-02-27T07:15:47.885Z,3.70
2023-02-27T07:18:16.172Z,3.53
2023-02-27T07:20:44.102Z,3.70
2023-02-27T07:23:12.472Z,3.53
2023-02-27T07:25:41.792Z,4.35
2023-02-27T07:28:10.123Z,4.72
2023-02-27T07:30:38.209Z,4.55
2023-02-27T07:33:06.793Z,4.10
2023-02-27T07:35:34.943Z,4.70
2023-02-27T07:38:03.232Z,4.97
2023-02-27T07:40:31.181Z,5.22
2023-02-27T07:43:00.828Z,5.20
2023-02-27T07:45:29.602Z,4.80
2023-02-27T07:47:57.819Z,4.43
2023-02-27T07:50:25.841Z,6.72
2023-02-27T07:52:54.169Z,7.20
2023-02-27T07:55:22.115Z,5.55
2023-02-27T07:57:50.290Z,5.13
2023-02-27T08:00:20.863Z,4.80
2023-02-27T08:02:49.330Z,6.65
2023-02-27T08:05:17.463Z,7.45
2023-02-27T08:07:45.856Z,7.13
2023-02-27T08:10:16.111Z,7.88
2023-02-27T08:12:44.774Z,9.60
2023-02-27T08:15:12.980Z,6.68
2023-02-27T08:17:42.545Z,7.82
2023-02-27T08:20:13.018Z,4.43
2023-02-27T08:22:41.474Z,5.20
2023-02-27T08:25:11.820Z,6.95
2023-02-27T08:27:40.408Z,6.50
2023-02-27T08:30:10.970Z,8.38
2023-02-27T08:32:39.623Z,4.97
2023-02-27T08:35:09.940Z,6.40
2023-02-27T08:37:38.762Z,3.58
2023-02-27T08:40:10.870Z,4.65
2023-02-27T08:42:39.205Z,3.92
2023-02-27T08:45:08.362Z,3.30
2023-02-27T08:47:37.138Z,3.78
2023-02-27T08:50:06.468Z,3.33
2023-02-27T08:52:36.085Z,3.42
2023-02-27T08:55:04.256Z,3.20
2023-02-27T08:57:32.706Z,2.30
2023-02-27T09:00:00.651Z,3.13
2023-02-27T09:02:29.076Z,3.33
2023-02-27T09:04:57.384Z,2.83
2023-02-27T09:07:25.575Z,3.40
2023-02-27T09:09:54.916Z,3.13
2023-02-27T09:12:23.460Z,3.05
2023-02-27T09:14:51.369Z,2.95
2023-02-27T09:17:19.679Z,2.83
2023-02-27T09:19:47.864Z,3.33
2023-02-27T09:22:16.216Z,6.05
2023-02-27T09:24:44.348Z,3.58
2023-02-27T09:27:14.299Z,4.03
2023-02-27T09:29:42.404Z,7.53
2023-02-27T09:32:10.977Z,5.78
2023-02-27T09:34:39.654Z,7.00
2023-02-27T09:37:07.891Z,3.20
2023-02-27T09:39:36.349Z,2.80
2023-02-27T09:42:06.046Z,2.70
2023-02-27T09:44:46.628Z,2.90
2023-02-27T09:47:19.609Z,2.33
2023-02-27T09:49:54.524Z,2.47
2023-02-27T09:52:23.029Z,2.28
2023-02-27T09:54:51.305Z,8.02
2023-02-27T09:57:23.413Z,2.10
2023-02-27T09:59:56.134Z,1.60
2023-02-27T10:02:35.687Z,1.95
2023-02-27T10:05:08.021Z,3.53
2023-02-27T10:07:41.713Z,4.10
2023-02-27T10:10:22.885Z,5.63
2023-02-27T10:13:14.872Z,2.53
2023-02-27T10:15:48.250Z,2.25
2023-02-27T10:18:27.615Z,2.10
2023-02-27T10:20:58.274Z,1.80
2023-02-27T10:23:33.236Z,1.75
2023-02-27T10:26:02.349Z,3.33
2023-02-27T10:28:30.954Z,3.50
2023-02-27T10:31:02.135Z,3.80
2023-02-27T10:33:35.293Z,2.00
2023-02-27T10:36:04.055Z,3.38
2023-02-27T10:38:34.702Z,3.03
2023-02-27T10:41:03.729Z,5.82
2023-02-27T10:43:32.147Z,2.40
2023-02-27T10:46:04.950Z,3.50
2023-02-27T10:48:33.690Z,5.05
2023-02-27T10:51:24.224Z,3.70
2023-02-27T10:53:53.737Z,2.10
2023-02-27T10:56:27.119Z,2.95
2023-02-27T10:59:06.885Z,2.80
2023-02-27T11:01:44.399Z,3.70
2023-02-27T11:04:13.513Z,4.10
2023-02-27T11:06:43.172Z,4.90
2023-02-27T11:09:13.548Z,2.60
2023-02-27T11:11:41.553Z,5.40
2023-02-27T11:14:25.077Z,3.30
2023-02-27T11:16:55.944Z,2.67
2023-02-27T11:19:33.358Z,3.00
2023-02-27T11:22:06.276Z,2.80
2023-02-27T11:24:35.196Z,3.70
2023-02-27T11:27:06.362Z,3.67
2023-02-27T11:29:35.572Z,4.17
2023-02-27T11:32:11.271Z,5.18
2023-02-27T11:34:41.686Z,4.63
2023-02-27T11:37:22.374Z,4.85
2023-02-27T11:39:52.304Z,4.40
2023-02-27T11:42:26.137Z,4.88
2023-02-27T11:44:56.844Z,5.50
2023-02-27T11:47:31.146Z,5.25
2023-02-27T11:50:24.277Z,5.43
2023-02-27T11:52:55.057Z,4.85
2023-02-27T11:55:24.998Z,4.45
2023-02-27T11:57:58.204Z,4.47
2023-02-27T12:00:29.231Z,47.78
2023-02-27T12:03:03.680Z,6.88
2023-02-27T12:05:35.805Z,13.70
2023-02-27T12:08:06.076Z,6.70
2023-02-27T12:10:39.931Z,25.15
2023-02-27T12:13:13.845Z,13.68
2023-02-27T12:15:46.443Z,14.05
2023-02-27T12:20:51.555Z,15.27
2023-02-27T12:23:24.651Z,15.30
2023-02-27T12:25:57.018Z,20.63
2023-02-27T12:28:33.182Z,9.90
2023-02-27T12:31:21.648Z,10.48
2023-02-27T12:33:56.681Z,5.28
2023-02-27T12:36:25.016Z,4.90
2023-02-27T12:38:53.558Z,4.78
2023-02-27T12:41:38.407Z,5.40
2023-02-27T12:44:24.329Z,5.57
2023-02-27T12:46:59.267Z,3.97
2023-02-27T12:49:36.932Z,5.40
2023-02-27T12:52:18.530Z,5.40
2023-02-27T12:54:56.461Z,6.78
2023-02-27T12:57:41.232Z,7.70
2023-02-27T13:00:14.923Z,6.60
2023-02-27T13:03:00.087Z,6.13
2023-02-27T13:05:44.414Z,6.25
2023-02-27T13:08:38.284Z,6.22
2023-02-27T13:11:10.021Z,6.22
2023-02-27T13:13:41.222Z,6.80
2023-02-27T13:16:15.138Z,6.25
2023-02-27T13:18:46.512Z,6.72
2023-02-27T13:21:20.507Z,6.50
2023-02-27T13:24:02.994Z,6.40
2023-02-27T13:26:34.219Z,6.53
2023-02-27T13:29:03.385Z,6.05
2023-02-27T13:31:37.461Z,5.78
2023-02-27T13:34:14.312Z,6.35
2023-02-27T13:36:46.059Z,6.40
2023-02-27T13:39:42.813Z,5.68
2023-02-27T13:42:44.154Z,6.10
2023-02-27T13:45:46.119Z,6.35
2023-02-27T13:48:57.145Z,5.70
2023-02-27T13:51:47.962Z,6.35
2023-02-27T13:54:40.583Z,5.95
2023-02-27T13:57:23.907Z,6.28
2023-02-27T14:00:17.890Z,6.53
2023-02-27T14:02:59.742Z,7.65
2023-02-27T14:08:10.546Z,6.35
2023-02-27T14:10:40.185Z,6.13
2023-02-27T14:13:57.714Z,7.43
2023-02-27T14:16:54.325Z,6.55
2023-02-27T14:19:51.975Z,6.85
2023-02-27T14:22:48.405Z,59.47
2023-02-27T14:25:27.944Z,7.10
2023-02-27T14:27:57.655Z,7.15
2023-02-27T14:30:30.641Z,6.45
2023-02-27T14:33:02.695Z,6.07
2023-02-27T14:35:31.648Z,6.25
2023-02-27T14:38:01.442Z,6.80
2023-02-27T14:40:35.282Z,7.57
2023-02-27T14:43:09.605Z,7.40
2023-02-27T14:45:38.742Z,6.78
2023-02-27T14:48:10.218Z,10.43
2023-02-27T14:50:41.935Z,13.02
2023-02-27T14:53:24.259Z,17.83
2023-02-27T15:01:03.288Z,32.20
2023-02-27T15:03:36.055Z,49.92
2023-02-27T15:06:06.408Z,18.73
2023-02-27T15:08:39.277Z,16.83
2023-02-27T15:11:10.494Z,74.30
2023-02-27T15:13:39.931Z,11.27
2023-02-27T15:16:22.182Z,9.10
2023-02-27T15:18:51.691Z,7.88
2023-02-27T15:21:21.614Z,7.78
2023-02-27T15:23:55.648Z,9.25
2023-02-27T15:26:26.255Z,19.55
2023-02-27T15:28:54.462Z,16.52
2023-02-27T15:31:27.092Z,12.60
2023-02-27T15:33:56.540Z,10.60
2023-02-27T15:36:26.613Z,15.63
2023-02-27T15:39:07.578Z,18.67
2023-02-27T15:41:37.558Z,17.20
2023-02-27T15:44:05.918Z,16.73
2023-02-27T15:46:34.329Z,11.38
2023-02-27T15:49:02.612Z,15.10
2023-02-27T15:51:31.335Z,13.02
2023-02-27T15:54:01.281Z,9.27
2023-02-27T15:56:33.037Z,8.77
2023-02-27T15:59:02.961Z,6.37
2023-02-27T16:01:34.777Z,7.50
2023-02-27T16:04:05.495Z,9.73
2023-02-27T16:06:35.762Z,8.80
2023-02-27T16:09:06.607Z,10.80
2023-02-27T16:11:37.524Z,8.48
2023-02-27T16:14:08.600Z,8.73
2023-02-27T16:16:38.915Z,10.03
2023-02-27T16:19:16.981Z,11.75
2023-02-27T16:22:06.597Z,9.40
2023-02-27T16:24:35.312Z,9.07
2023-02-27T16:27:03.871Z,17.35
2023-02-27T16:29:36.296Z,40.63
2023-02-27T16:32:05.547Z,22.70
2023-02-27T16:34:44.997Z,23.63
2023-02-27T16:37:19.606Z,21.23
2023-02-27T16:39:47.834Z,16.95
2023-02-27T16:42:16.214Z,21.30
2023-02-27T16:44:45.585Z,18.00
2023-02-27T16:47:14.702Z,16.02
2023-02-27T16:49:44.334Z,13.13
2023-02-27T16:52:13.105Z,26.67
2023-02-27T16:54:41.175Z,29.75
2023-02-27T16:57:10.813Z,37.28
2023-02-27T16:59:40.469Z,22.70
2023-02-27T17:02:14.134Z,24.55
2023-02-27T17:04:44.456Z,37.50
2023-02-27T17:07:15.802Z,19.30
2023-02-27T17:09:44.767Z,18.95
2023-02-27T17:12:13.359Z,14.23
2023-02-27T17:14:41.507Z,18.65
2023-02-27T17:17:11.578Z,24.38
2023-02-27T17:19:39.925Z,14.68
2023-02-27T17:22:08.454Z,25.08
2023-02-27T17:24:36.386Z,26.45
2023-02-27T17:27:04.803Z,19.67
2023-02-27T17:29:32.877Z,20.02
2023-02-27T17:32:01.087Z,20.80
2023-02-27T17:34:30.503Z,20.73
2023-02-27T17:36:58.908Z,24.30
2023-02-27T17:39:27.005Z,21.25
2023-02-27T17:41:55.351Z,17.60
2023-02-27T17:44:23.508Z,15.90
2023-02-27T17:46:52.063Z,18.38
2023-02-27T17:49:20.012Z,17.67
2023-02-27T17:51:49.748Z,18.02
2023-02-27T17:54:17.833Z,24.23
2023-02-27T17:56:46.154Z,20.40
2023-02-27T17:59:14.266Z,15.75
2023-02-27T18:01:42.520Z,15.10
2023-02-27T18:04:11.447Z,16.27
2023-02-27T18:06:40.099Z,13.02
2023-02-27T18:09:09.689Z,13.65
2023-02-27T18:11:38.549Z,15.75
2023-02-27T18:14:07.154Z,20.02
2023-02-27T18:16:36.027Z,21.92
2023-02-27T18:19:04.884Z,19.05
2023-02-27T18:21:34.002Z,19.00
2023-02-27T18:24:02.392Z,18.27
2023-02-27T18:26:33.499Z,23.95
2023-02-27T18:29:02.991Z,23.38
2023-02-27T18:31:33.055Z,45.40
2023-02-27T18:34:01.269Z,48.97
2023-02-27T18:36:30.456Z,42.97
2023-02-27T18:38:59.622Z,34.28
2023-02-27T18:41:29.140Z,34.20
2023-02-27T18:43:59.271Z,71.47
2023-02-27T18:46:29.173Z,48.95
2023-02-27T18:48:57.991Z,82.55
2023-02-27T18:51:26.653Z,67.70
2023-02-27T18:53:54.793Z,43.10
2023-02-27T18:56:25.526Z,30.45
2023-02-27T18:58:54.593Z,36.33
2023-02-27T19:01:26.379Z,34.22
2023-02-27T19:04:00.000Z,40.73
2023-02-27T19:06:29.122Z,32.45
2023-02-27T19:08:57.386Z,34.97
2023-02-27T19:11:28.523Z,30.55
2023-02-27T19:13:57.841Z,22.85
2023-02-27T19:16:28.190Z,21.60
2023-02-27T19:18:57.300Z,49.45
2023-02-27T19:21:26.044Z,54.22
2023-02-27T19:23:54.069Z,33.00
2023-02-27T19:26:23.249Z,36.38
2023-02-27T19:28:52.191Z,37.10
2023-02-27T19:31:21.116Z,28.90
2023-02-27T19:33:50.550Z,35.35
2023-02-27T19:36:20.766Z,37.08
2023-02-27T19:38:49.144Z,35.50
2023-02-27T19:41:18.419Z,36.85
2023-02-27T19:43:47.388Z,30.70
2023-02-27T19:46:17.250Z,23.58
2023-02-27T19:48:45.811Z,25.30
2023-02-27T19:51:16.222Z,24.42
2023-02-27T19:53:48.216Z,30.35
2023-02-27T19:56:19.174Z,58.03
2023-02-27T19:58:47.704Z,56.70
2023-02-27T20:01:22.555Z,28.42
2023-02-27T20:03:50.648Z,18.17
2023-02-27T20:06:23.239Z,19.67
2023-02-27T20:11:21.548Z,21.08
2023-02-27T20:13:49.970Z,14.98
2023-02-27T20:16:20.626Z,14.73
2023-02-27T20:18:48.992Z,15.27
2023-02-27T20:21:21.391Z,14.60
2023-02-27T20:23:51.598Z,11.50
2023-02-27T20:26:22.107Z,12.38
2023-02-27T20:28:52.077Z,18.15
2023-02-27T20:31:22.218Z,15.73
2023-02-27T20:33:50.896Z,13.48
2023-02-27T20:36:20.722Z,12.57
2023-02-27T20:38:48.745Z,13.57
2023-02-27T20:41:18.427Z,13.18
2023-02-27T20:43:46.854Z,13.52
2023-02-27T20:46:17.144Z,15.25
2023-02-27T20:48:45.448Z,14.95
2023-02-27T20:51:15.796Z,27.80
2023-02-27T20:53:47.036Z,19.42
2023-02-27T20:56:16.299Z,30.55
2023-02-27T20:58:44.168Z,20.80
2023-02-27T21:01:13.332Z,17.48
2023-02-27T21:03:43.036Z,15.90
2023-02-27T21:06:12.997Z,14.40
2023-02-27T21:08:42.583Z,15.48
2023-02-27T21:11:13.976Z,31.73
2023-02-27T21:13:42.024Z,55.67
2023-02-27T21:16:11.510Z,50.55
2023-02-27T21:18:39.844Z,61.95
2023-02-27T21:21:09.528Z,41.33
2023-02-27T21:23:41.293Z,39.75
2023-02-27T21:26:10.235Z,29.73
2023-02-27T21:28:46.802Z,43.00
2023-02-27T21:31:15.690Z,26.30
2023-02-27T21:33:44.192Z,32.60
2023-02-27T21:36:12.706Z,35.53
2023-02-27T21:38:40.863Z,21.33
2023-02-27T21:41:11.675Z,26.60
2023-02-27T21:43:41.314Z,26.92
2023-02-27T21:46:11.319Z,27.75
2023-02-27T21:48:39.886Z,26.73
2023-02-27T21:51:08.398Z,25.30
2023-02-27T21:53:37.131Z,27.02
2023-02-27T21:56:06.492Z,21.73
2023-02-27T21:58:35.028Z,36.85
2023-02-27T22:01:15.127Z,17.95
2023-02-27T22:03:43.500Z,16.38
2023-02-27T22:06:12.215Z,15.32
2023-02-27T22:08:40.346Z,17.70
2023-02-27T22:11:08.675Z,16.00
2023-02-27T22:13:37.824Z,15.10
2023-02-27T22:16:09.781Z,15.10
2023-02-27T22:18:38.793Z,17.00
2023-02-27T22:21:09.080Z,17.52
2023-02-27T22:23:37.850Z,14.68
2023-02-27T22:26:07.945Z,15.27
2023-02-27T22:28:37.021Z,15.60
2023-02-27T22:31:11.284Z,16.55
2023-02-27T22:33:39.934Z,14.23
2023-02-27T22:36:09.574Z,13.88
2023-02-27T22:38:37.647Z,13.77
2023-02-27T22:41:10.731Z,15.40
2023-02-27T22:43:39.757Z,14.13
2023-02-27T22:46:08.594Z,13.38
2023-02-27T22:48:37.983Z,15.55
2023-02-27T22:51:08.542Z,14.30
2023-02-27T22:53:38.441Z,13.13
2023-02-27T22:56:08.173Z,14.30
2023-02-27T22:58:37.903Z,13.80
2023-02-27T23:01:09.951Z,14.13
2023-02-27T23:06:08.972Z,13.68
2023-02-27T23:08:37.480Z,15.18
2023-02-27T23:11:05.994Z,14.43
2023-02-27T23:13:34.266Z,14.52
2023-02-27T23:16:02.925Z,15.25
2023-02-27T23:18:31.125Z,15.23
2023-02-27T23:21:04.455Z,15.18
2023-02-27T23:23:32.806Z,15.73
2023-02-27T23:26:01.835Z,15.65
2023-02-27T23:28:30.790Z,14.55
2023-02-27T23:30:59.437Z,13.73
2023-02-27T23:33:27.683Z,14.50
2023-02-27T23:35:55.897Z,14.40
2023-02-27T23:38:25.468Z,14.98
2023-02-27T23:40:54.032Z,14.48
2023-02-27T23:43:22.668Z,14.75
2023-02-27T23:45:51.055Z,15.20
2023-02-27T23:48:21.814Z,15.32
2023-02-27T23:50:50.306Z,14.18
2023-02-27T23:53:19.076Z,14.55
2023-02-27T23:55:48.345Z,15.30
2023-02-27T23:58:16.693Z,14.23
